Time;durP1;ratioP1;P1;durP2;ratioP2;P2;SDS_P1;SDS_P2;PMS_P1;PMS_P2;Temp;Humidity;BMP_temperature;BMP_pressure;BME280_temperature;BME280_humidity;BME280_pressure;Samples;Min_cycle;Max_cycle;Signal;HPM_P1;HPM_P2
2022/02/20 00:00:11;;;;;;;;;;;9.00;99.90;;;;;;5037661;28;19915;-79
2022/02/20 00:02:36;;;;;;;;;;;8.90;99.90;;;;;;5055588;28;19963;-79
2022/02/20 00:05:02;;;;;;;;;;;8.90;99.90;;;;;;5055692;28;19908;-79
2022/02/20 00:07:27;;;;;;;;;;;9.00;99.90;;;;;;5055564;28;19909;-79
2022/02/20 00:09:53;;;;;;;;;;;8.90;99.90;;;;;;5037416;28;19956;-79
2022/02/20 00:12:19;;;;;;;;;;;8.90;99.90;;;;;;5055392;28;19909;-79
2022/02/20 00:14:44;;;;;;;;;;;8.90;99.90;;;;;;5055732;28;19931;-78
2022/02/20 00:17:10;;;;;;;;;;;8.90;99.90;;;;;;5054078;28;20031;-79
2022/02/20 00:19:35;;;;;;;;;;;9.00;99.90;;;;;;5055267;28;19916;-78
2022/02/20 00:22:01;;;;;;;;;;;9.00;99.90;;;;;;5055171;28;19958;-79
2022/02/20 00:24:27;;;;;;;;;;;8.90;99.90;;;;;;5055487;28;20289;-79
2022/02/20 00:26:52;;;;;;;;;;;8.90;99.90;;;;;;5055065;28;19909;-79
2022/02/20 00:29:18;;;;;;;;;;;9.00;99.90;;;;;;5054988;28;19913;-78
2022/02/20 00:31:43;;;;;;;;;;;9.00;99.90;;;;;;5055564;28;20441;-78
2022/02/20 00:34:09;;;;;;;;;;;9.00;99.90;;;;;;5037053;28;19909;-78
2022/02/20 00:36:35;;;;;;;;;;;9.00;99.90;;;;;;5054928;28;19908;-79
2022/02/20 00:39:00;;;;;;;;;;;9.10;99.90;;;;;;5054816;28;19996;-79
2022/02/20 00:41:26;;;;;;;;;;;9.20;99.90;;;;;;5054778;28;19919;-79
2022/02/20 00:43:51;;;;;;;;;;;9.30;99.90;;;;;;5036915;28;19916;-79
2022/02/20 00:46:17;;;;;;;;;;;9.30;99.90;;;;;;5054877;28;20281;-79
2022/02/20 00:48:43;;;;;;;;;;;9.30;99.90;;;;;;5054555;28;19942;-79
2022/02/20 00:51:09;;;;;;;;;;;9.30;99.90;;;;;;5054678;28;19915;-79
2022/02/20 00:53:34;;;;;;;;;;;9.20;99.90;;;;;;5054488;28;19909;-78
2022/02/20 00:56:00;;;;;;;;;;;9.20;99.90;;;;;;5054539;28;19944;-78
2022/02/20 00:58:26;;;;;;;;;;;9.10;99.90;;;;;;5054675;28;19908;-79
2022/02/20 01:00:52;;;;;;;;;;;9.00;99.90;;;;;;5054436;28;19966;-78
2022/02/20 01:03:17;;;;;;;;;;;9.00;99.90;;;;;;5054389;28;19978;-79
2022/02/20 01:05:44;;;;;;;;;;;9.00;99.90;;;;;;5054407;28;19919;-78
2022/02/20 01:08:09;;;;;;;;;;;9.00;99.90;;;;;;5054675;28;19909;-80
2022/02/20 01:10:35;;;;;;;;;;;9.00;99.90;;;;;;5054469;28;20373;-78
2022/02/20 01:13:01;;;;;;;;;;;9.00;99.90;;;;;;5054347;28;19962;-78
2022/02/20 01:15:27;;;;;;;;;;;9.00;99.90;;;;;;5054299;28;19909;-80
2022/02/20 01:17:53;;;;;;;;;;;9.00;99.90;;;;;;5053747;28;19921;-78
2022/02/20 01:20:18;;;;;;;;;;;8.90;99.90;;;;;;5054103;28;19916;-77
2022/02/20 01:22:44;;;;;;;;;;;8.90;99.90;;;;;;5054083;28;19987;-79
2022/02/20 01:25:10;;;;;;;;;;;9.00;99.90;;;;;;5053969;28;20262;-79
2022/02/20 01:27:35;;;;;;;;;;;9.00;99.90;;;;;;5053969;28;20396;-78
2022/02/20 01:30:01;;;;;;;;;;;8.90;99.90;;;;;;5053697;28;19960;-79
2022/02/20 01:32:27;;;;;;;;;;;9.00;99.90;;;;;;5054109;28;20362;-79
2022/02/20 01:34:52;;;;;;;;;;;8.90;99.90;;;;;;5053994;28;19909;-78
2022/02/20 01:37:18;;;;;;;;;;;8.90;99.90;;;;;;5053812;28;19940;-79
2022/02/20 01:39:43;;;;;;;;;;;8.90;99.90;;;;;;5053762;28;19912;-80
2022/02/20 01:42:09;;;;;;;;;;;8.90;99.90;;;;;;5054212;28;19909;-79
2022/02/20 01:44:35;;;;;;;;;;;8.90;99.90;;;;;;5054065;28;19913;-79
2022/02/20 01:47:06;;;;;;;;;;;8.90;99.90;;;;;;5053762;28;19956;-78
2022/02/20 01:49:31;;;;;;;;;;;8.90;99.90;;;;;;5053593;28;19963;-80
2022/02/20 01:51:57;;;;;;;;;;;9.00;99.90;;;;;;5053586;28;19948;-80
2022/02/20 01:54:22;;;;;;;;;;;9.10;99.90;;;;;;5035650;28;19975;-79
2022/02/20 01:56:48;;;;;;;;;;;9.10;99.90;;;;;;5053772;28;19909;-79
2022/02/20 01:59:14;;;;;;;;;;;9.10;99.90;;;;;;5054149;28;19941;-78
2022/02/20 02:01:39;;;;;;;;;;;9.10;99.90;;;;;;5053542;28;19958;-79
2022/02/20 02:04:05;;;;;;;;;;;9.00;99.90;;;;;;5053511;28;19916;-79
2022/02/20 02:06:31;;;;;;;;;;;8.90;99.90;;;;;;5053600;28;19909;-79
2022/02/20 02:08:58;;;;;;;;;;;8.90;99.90;;;;;;5053545;28;19912;-78
2022/02/20 02:11:24;;;;;;;;;;;8.90;99.90;;;;;;5053423;28;19962;-78
2022/02/20 02:13:50;;;;;;;;;;;8.80;99.90;;;;;;5053670;28;19916;-79
2022/02/20 02:16:15;;;;;;;;;;;8.80;99.90;;;;;;5053295;28;19916;-79
2022/02/20 02:18:42;;;;;;;;;;;8.80;99.90;;;;;;5053708;28;19996;-79
2022/02/20 02:21:08;;;;;;;;;;;8.80;99.90;;;;;;5053381;28;20369;-79
2022/02/20 02:23:33;;;;;;;;;;;8.70;99.90;;;;;;5035526;28;19919;-78
2022/02/20 02:25:59;;;;;;;;;;;8.70;99.90;;;;;;5053515;28;20431;-78
2022/02/20 02:28:25;;;;;;;;;;;8.80;99.90;;;;;;5035291;28;19916;-79
2022/02/20 02:30:50;;;;;;;;;;;8.80;99.90;;;;;;5035402;28;19909;-80
2022/02/20 02:33:29;;;;;;;;;;;8.80;99.90;;;;;;5053261;28;19909;-79
2022/02/20 02:35:55;;;;;;;;;;;8.80;99.90;;;;;;5035371;28;19909;-79
2022/02/20 02:38:26;;;;;;;;;;;8.80;99.90;;;;;;5053240;28;20285;-79
2022/02/20 02:40:59;;;;;;;;;;;8.90;99.90;;;;;;5036677;28;19959;-79
2022/02/20 02:43:26;;;;;;;;;;;8.90;99.90;;;;;;5038896;28;19909;-78
2022/02/20 02:45:51;;;;;;;;;;;9.00;99.90;;;;;;5057026;28;19909;-79
2022/02/20 02:48:17;;;;;;;;;;;9.10;99.90;;;;;;5056900;28;20399;-78
2022/02/20 02:50:43;;;;;;;;;;;9.20;99.90;;;;;;5056983;28;20306;-78
2022/02/20 02:53:08;;;;;;;;;;;9.20;99.90;;;;;;5056844;28;19912;-79
2022/02/20 02:55:34;;;;;;;;;;;9.20;99.90;;;;;;5057279;28;19944;-79
2022/02/20 02:58:00;;;;;;;;;;;9.20;99.90;;;;;;5057147;28;19952;-79
2022/02/20 03:00:25;;;;;;;;;;;9.20;99.90;;;;;;5056699;28;20296;-78
2022/02/20 03:02:51;;;;;;;;;;;9.20;99.90;;;;;;5056704;28;19909;-78
2022/02/20 03:05:16;;;;;;;;;;;9.20;99.90;;;;;;5056700;28;20358;-78
2022/02/20 03:07:43;;;;;;;;;;;9.20;99.90;;;;;;5056567;28;19913;-79
2022/02/20 03:10:09;;;;;;;;;;;9.20;99.90;;;;;;5056825;28;19948;-79
2022/02/20 03:12:35;;;;;;;;;;;9.20;99.90;;;;;;5056507;28;19944;-78
2022/02/20 03:15:01;;;;;;;;;;;9.30;99.90;;;;;;5056523;28;19909;-79
2022/02/20 03:17:27;;;;;;;;;;;9.30;99.90;;;;;;5056198;28;19921;-78
2022/02/20 03:19:52;;;;;;;;;;;9.20;99.90;;;;;;5038441;28;20392;-79
2022/02/20 03:22:18;;;;;;;;;;;9.20;99.90;;;;;;5056328;28;19909;-78
2022/02/20 03:24:43;;;;;;;;;;;9.20;99.90;;;;;;5056372;28;20438;-77
2022/02/20 03:27:10;;;;;;;;;;;9.20;99.90;;;;;;5056186;28;19916;-79
2022/02/20 03:29:35;;;;;;;;;;;9.30;99.90;;;;;;5056135;28;19958;-78
2022/02/20 03:32:01;;;;;;;;;;;9.20;99.90;;;;;;5056496;28;19909;-80
2022/02/20 03:34:27;;;;;;;;;;;9.30;99.90;;;;;;5056128;28;20207;-78
2022/02/20 03:36:52;;;;;;;;;;;9.30;99.90;;;;;;5056048;28;19916;-79
2022/02/20 03:39:18;;;;;;;;;;;9.30;99.90;;;;;;5056045;28;19952;-79
2022/02/20 03:41:44;;;;;;;;;;;9.30;99.90;;;;;;5056014;28;20011;-78
2022/02/20 03:44:09;;;;;;;;;;;9.30;99.90;;;;;;5056053;28;19995;-79
2022/02/20 03:46:35;;;;;;;;;;;9.40;99.90;;;;;;5055931;28;19912;-79
2022/02/20 03:49:01;;;;;;;;;;;9.40;99.90;;;;;;5055797;28;20003;-78
2022/02/20 03:51:26;;;;;;;;;;;9.50;99.90;;;;;;5055896;28;19909;-78
2022/02/20 03:53:52;;;;;;;;;;;9.60;99.90;;;;;;5037804;28;19908;-80
2022/02/20 03:56:18;;;;;;;;;;;9.70;99.90;;;;;;5037905;28;19916;-79
2022/02/20 03:58:43;;;;;;;;;;;9.70;99.90;;;;;;5055724;28;20432;-78
2022/02/20 04:01:09;;;;;;;;;;;9.70;99.90;;;;;;5055671;28;19916;-78
2022/02/20 04:03:34;;;;;;;;;;;9.70;99.90;;;;;;5056101;28;19997;-78
2022/02/20 04:06:00;;;;;;;;;;;9.80;99.90;;;;;;5055508;28;19931;-79
2022/02/20 04:08:26;;;;;;;;;;;9.80;99.90;;;;;;5055646;28;20270;-79
2022/02/20 04:10:51;;;;;;;;;;;9.80;99.90;;;;;;5055453;28;20403;-78
2022/02/20 04:13:17;;;;;;;;;;;9.80;99.90;;;;;;5055383;28;19908;-79
2022/02/20 04:15:43;;;;;;;;;;;9.90;99.90;;;;;;5037465;28;19936;-79
2022/02/20 04:18:08;;;;;;;;;;;9.90;99.90;;;;;;5054919;28;20008;-78
2022/02/20 04:20:34;;;;;;;;;;;9.90;99.90;;;;;;5055407;28;19916;-79
2022/02/20 04:22:59;;;;;;;;;;;9.90;99.90;;;;;;5055229;28;19952;-79
2022/02/20 04:25:25;;;;;;;;;;;10.00;99.90;;;;;;5055519;28;19916;-79
2022/02/20 04:27:50;;;;;;;;;;;10.00;99.90;;;;;;5055392;28;19915;-78
2022/02/20 04:30:18;;;;;;;;;;;10.00;99.90;;;;;;5054960;28;20328;-78
2022/02/20 04:32:44;;;;;;;;;;;10.00;99.90;;;;;;5055196;28;19920;-79
2022/02/20 04:35:10;;;;;;;;;;;10.00;99.90;;;;;;5054972;28;19909;-80
2022/02/20 04:37:36;;;;;;;;;;;10.10;99.90;;;;;;5036953;28;19940;-79
2022/02/20 04:40:03;;;;;;;;;;;10.20;99.90;;;;;;5054909;28;19908;-77
2022/02/20 04:42:28;;;;;;;;;;;10.20;99.90;;;;;;5054972;28;20281;-78
2022/02/20 04:44:54;;;;;;;;;;;10.30;99.90;;;;;;5054777;28;19908;-79
2022/02/20 04:47:19;;;;;;;;;;;10.30;99.90;;;;;;5036797;28;19915;-80
2022/02/20 04:49:45;;;;;;;;;;;10.30;99.90;;;;;;5054785;28;20349;-79
2022/02/20 04:52:11;;;;;;;;;;;10.30;99.90;;;;;;5054615;28;19913;-79
2022/02/20 04:54:36;;;;;;;;;;;10.50;99.90;;;;;;5036607;28;19909;-78
2022/02/20 04:57:02;;;;;;;;;;;10.50;99.90;;;;;;5036644;28;19909;-79
2022/02/20 04:59:28;;;;;;;;;;;10.60;99.90;;;;;;5036629;28;20392;-80
2022/02/20 05:01:53;;;;;;;;;;;10.60;99.90;;;;;;5036370;28;19966;-78
2022/02/20 05:04:19;;;;;;;;;;;10.50;99.90;;;;;;5053810;28;19909;-78
2022/02/20 05:06:45;;;;;;;;;;;10.60;99.90;;;;;;5036455;28;19909;-79
2022/02/20 05:09:10;;;;;;;;;;;10.50;99.90;;;;;;5054368;28;20324;-79
2022/02/20 05:11:36;;;;;;;;;;;10.50;99.90;;;;;;5054258;28;20289;-79
2022/02/20 05:14:01;;;;;;;;;;;10.50;99.90;;;;;;5054179;28;19952;-79
2022/02/20 05:16:28;;;;;;;;;;;10.50;99.90;;;;;;5054031;28;19921;-78
2022/02/20 05:18:54;;;;;;;;;;;10.50;99.90;;;;;;5054274;28;19962;-79
2022/02/20 05:21:19;;;;;;;;;;;10.50;99.90;;;;;;5054268;28;19908;-78
2022/02/20 05:23:45;;;;;;;;;;;10.40;99.90;;;;;;5054077;28;19909;-78
2022/02/20 05:26:12;;;;;;;;;;;10.40;99.90;;;;;;5054217;28;19916;-79
2022/02/20 05:28:38;;;;;;;;;;;10.40;99.90;;;;;;5054100;28;20377;-78
2022/02/20 05:31:04;;;;;;;;;;;10.40;99.90;;;;;;5053998;28;19976;-79
2022/02/20 05:33:29;;;;;;;;;;;10.50;99.90;;;;;;5053930;28;19909;-79
2022/02/20 05:35:55;;;;;;;;;;;10.50;99.90;;;;;;5053870;28;19951;-79
2022/02/20 05:38:21;;;;;;;;;;;10.50;99.90;;;;;;5053885;28;20010;-79
2022/02/20 05:40:46;;;;;;;;;;;10.50;99.90;;;;;;5054057;28;19915;-79
2022/02/20 05:43:13;;;;;;;;;;;10.50;99.90;;;;;;5053837;28;19916;-79
2022/02/20 05:45:38;;;;;;;;;;;10.50;99.90;;;;;;5053977;28;20008;-78
2022/02/20 05:48:04;;;;;;;;;;;10.50;99.90;;;;;;5054083;28;19940;-79
2022/02/20 05:50:30;;;;;;;;;;;10.60;99.90;;;;;;5053731;28;19919;-79
2022/02/20 05:52:56;;;;;;;;;;;10.60;99.90;;;;;;5035696;28;19913;-78
2022/02/20 05:55:21;;;;;;;;;;;10.60;99.90;;;;;;5053855;28;20428;-79
2022/02/20 05:57:48;;;;;;;;;;;10.70;99.90;;;;;;5035693;28;19909;-79
2022/02/20 06:00:15;;;;;;;;;;;10.70;99.90;;;;;;5053735;28;19913;-79
2022/02/20 06:02:41;;;;;;;;;;;10.70;99.90;;;;;;5053566;28;19940;-79
2022/02/20 06:05:07;;;;;;;;;;;10.70;99.90;;;;;;5053573;28;19951;-80
2022/02/20 06:07:33;;;;;;;;;;;10.70;99.90;;;;;;5053506;28;19916;-78
2022/02/20 06:09:59;;;;;;;;;;;10.70;99.90;;;;;;5035548;28;19920;-80
2022/02/20 06:12:25;;;;;;;;;;;10.70;99.90;;;;;;5053455;28;19909;-79
2022/02/20 06:14:51;;;;;;;;;;;10.70;99.90;;;;;;5054038;28;20265;-79
2022/02/20 06:17:16;;;;;;;;;;;10.70;99.90;;;;;;5057362;28;19921;-78
2022/02/20 06:19:42;;;;;;;;;;;10.70;99.90;;;;;;5039592;28;20258;-78
2022/02/20 06:22:07;;;;;;;;;;;10.70;99.90;;;;;;5057506;28;19947;-79
2022/02/20 06:24:33;;;;;;;;;;;10.70;99.90;;;;;;5057400;28;19919;-79
2022/02/20 06:26:59;;;;;;;;;;;10.80;99.90;;;;;;5039537;28;19913;-79
2022/02/20 06:29:25;;;;;;;;;;;10.80;99.90;;;;;;5057622;28;19913;-79
2022/02/20 06:31:50;;;;;;;;;;;10.80;99.90;;;;;;5057547;28;19909;-79
2022/02/20 06:34:16;;;;;;;;;;;10.80;99.90;;;;;;5057243;28;20396;-79
2022/02/20 06:36:41;;;;;;;;;;;10.80;99.90;;;;;;5057165;28;19908;-79
2022/02/20 06:39:07;;;;;;;;;;;10.80;99.90;;;;;;5057159;28;20395;-79
2022/02/20 06:41:33;;;;;;;;;;;10.80;99.90;;;;;;5057444;28;19999;-78
2022/02/20 06:43:58;;;;;;;;;;;10.80;99.90;;;;;;5057288;28;19909;-77
2022/02/20 06:46:24;;;;;;;;;;;10.90;99.90;;;;;;5057079;28;19946;-78
2022/02/20 06:48:49;;;;;;;;;;;10.90;99.90;;;;;;5038906;28;19974;-80
2022/02/20 06:51:15;;;;;;;;;;;10.90;99.90;;;;;;5039012;28;19909;-78
2022/02/20 06:53:40;;;;;;;;;;;10.90;99.90;;;;;;5057195;28;19909;-79
2022/02/20 06:56:06;;;;;;;;;;;11.00;99.90;;;;;;5056851;28;20324;-79
2022/02/20 06:58:32;;;;;;;;;;;11.00;99.90;;;;;;5056939;28;19915;-78
2022/02/20 07:00:57;;;;;;;;;;;11.00;99.90;;;;;;5056744;28;19909;-79
2022/02/20 07:03:23;;;;;;;;;;;11.00;99.90;;;;;;5056707;28;19913;-78
2022/02/20 07:05:48;;;;;;;;;;;11.00;99.90;;;;;;5056661;28;19909;-79
2022/02/20 07:08:14;;;;;;;;;;;11.00;99.90;;;;;;5038625;28;20253;-79
2022/02/20 07:10:40;;;;;;;;;;;11.00;99.90;;;;;;5038550;28;19920;-79
2022/02/20 07:13:05;;;;;;;;;;;11.00;99.90;;;;;;5056583;28;19963;-77
2022/02/20 07:15:31;;;;;;;;;;;11.00;99.90;;;;;;5057000;28;19909;-79
2022/02/20 07:17:57;;;;;;;;;;;11.00;99.90;;;;;;5056349;28;20466;-78
2022/02/20 07:20:23;;;;;;;;;;;11.00;99.90;;;;;;5056560;28;19909;-78
2022/02/20 07:22:49;;;;;;;;;;;10.90;99.90;;;;;;5056381;28;19909;-77
2022/02/20 07:25:14;;;;;;;;;;;11.00;99.90;;;;;;5056374;28;20387;-78
2022/02/20 07:27:41;;;;;;;;;;;11.00;99.90;;;;;;5056093;28;19916;-78
2022/02/20 07:30:08;;;;;;;;;;;11.00;99.90;;;;;;5056510;28;20372;-78
2022/02/20 07:32:33;;;;;;;;;;;11.00;99.90;;;;;;5056256;28;19909;-79
2022/02/20 07:34:59;;;;;;;;;;;11.10;99.90;;;;;;5056444;28;19909;-78
2022/02/20 07:37:28;;;;;;;;;;;11.10;99.90;;;;;;5038216;28;19909;-79
2022/02/20 07:39:54;;;;;;;;;;;11.10;99.90;;;;;;5038039;28;19913;-78
2022/02/20 07:42:20;;;;;;;;;;;11.20;99.90;;;;;;5056009;28;19932;-78
2022/02/20 07:44:45;;;;;;;;;;;11.10;99.90;;;;;;5055980;28;19913;-78
2022/02/20 07:47:11;;;;;;;;;;;11.20;99.90;;;;;;5056022;28;19912;-79
2022/02/20 07:49:37;;;;;;;;;;;11.30;99.90;;;;;;5055743;28;19966;-77
2022/02/20 07:52:02;;;;;;;;;;;11.30;99.90;;;;;;5055867;28;19991;-77
2022/02/20 07:54:28;;;;;;;;;;;11.40;99.90;;;;;;5055657;28;19909;-78
2022/02/20 07:56:53;;;;;;;;;;;11.40;99.90;;;;;;5055741;28;19913;-77
2022/02/20 07:59:20;;;;;;;;;;;11.50;99.90;;;;;;5055683;28;20376;-77
2022/02/20 08:01:45;;;;;;;;;;;11.50;99.90;;;;;;5055612;28;20253;-78
2022/02/20 08:04:11;;;;;;;;;;;11.50;99.90;;;;;;5055844;28;19919;-77
2022/02/20 08:06:36;;;;;;;;;;;11.60;99.90;;;;;;5055650;28;20284;-78
2022/02/20 08:09:04;;;;;;;;;;;11.60;99.90;;;;;;5055399;28;19912;-79
2022/02/20 08:11:33;;;;;;;;;;;11.70;99.90;;;;;;5055459;28;19908;-77
2022/02/20 08:13:58;;;;;;;;;;;11.70;99.90;;;;;;5055845;28;20391;-78
2022/02/20 08:16:24;;;;;;;;;;;11.80;99.90;;;;;;5055181;28;19947;-78
2022/02/20 08:18:50;;;;;;;;;;;11.90;99.90;;;;;;5055678;28;19913;-78
2022/02/20 08:21:15;;;;;;;;;;;12.20;99.90;;;;;;5055267;28;19909;-79
2022/02/20 08:23:41;;;;;;;;;;;12.40;99.90;;;;;;5055449;28;19909;-78
2022/02/20 08:26:07;;;;;;;;;;;12.50;99.90;;;;;;5055384;28;19952;-79
2022/02/20 08:28:32;;;;;;;;;;;12.90;99.90;;;;;;5055100;28;19908;-79
2022/02/20 08:30:58;;;;;;;;;;;13.10;99.90;;;;;;5037217;28;19908;-77
2022/02/20 08:33:23;;;;;;;;;;;13.50;99.90;;;;;;5055032;28;19913;-78
2022/02/20 08:35:49;;;;;;;;;;;13.90;99.90;;;;;;5055063;28;19995;-78
2022/02/20 08:38:16;;;;;;;;;;;13.90;99.90;;;;;;5054030;28;19908;-79
2022/02/20 08:40:43;;;;;;;;;;;13.80;99.90;;;;;;5055067;28;20003;-77
2022/02/20 08:43:09;;;;;;;;;;;14.10;99.90;;;;;;5036940;28;20301;-78
2022/02/20 08:45:34;;;;;;;;;;;14.20;99.90;;;;;;5036930;28;19931;-78
2022/02/20 08:48:01;;;;;;;;;;;14.10;99.90;;;;;;5054981;28;20437;-77
2022/02/20 08:50:26;;;;;;;;;;;14.40;99.90;;;;;;5054615;28;19919;-78
2022/02/20 08:52:52;;;;;;;;;;;14.60;99.90;;;;;;5054704;28;19913;-78
2022/02/20 08:55:18;;;;;;;;;;;15.10;99.90;;;;;;5054670;28;19909;-77
2022/02/20 08:57:44;;;;;;;;;;;16.00;99.90;;;;;;5054801;28;20288;-78
2022/02/20 09:00:11;;;;;;;;;;;16.00;99.90;;;;;;5054549;28;19909;-78
2022/02/20 09:02:36;;;;;;;;;;;16.00;99.90;;;;;;5054572;28;19909;-79
2022/02/20 09:05:02;;;;;;;;;;;16.00;99.90;;;;;;5054421;28;19915;-78
2022/02/20 09:07:28;;;;;;;;;;;16.20;99.90;;;;;;5054357;28;20008;-78
2022/02/20 09:09:53;;;;;;;;;;;15.90;99.90;;;;;;5054216;28;19971;-78
2022/02/20 09:12:19;;;;;;;;;;;15.70;99.90;;;;;;5054279;28;19915;-78
2022/02/20 09:14:44;;;;;;;;;;;15.70;99.90;;;;;;5036288;28;20038;-78
2022/02/20 09:17:10;;;;;;;;;;;16.30;99.90;;;;;;5054067;28;19921;-78
2022/02/20 09:19:36;;;;;;;;;;;16.60;99.90;;;;;;5036338;28;19909;-79
2022/02/20 09:22:01;;;;;;;;;;;17.30;99.90;;;;;;5054111;28;20293;-77
2022/02/20 09:24:27;;;;;;;;;;;18.10;99.90;;;;;;5054524;28;19988;-78
2022/02/20 09:26:53;;;;;;;;;;;17.90;99.90;;;;;;5054066;28;19999;-78
2022/02/20 09:29:19;;;;;;;;;;;17.70;99.90;;;;;;5035993;28;19913;-79
2022/02/20 09:31:44;;;;;;;;;;;17.00;99.90;;;;;;5053872;28;19909;-78
2022/02/20 09:34:10;;;;;;;;;;;16.60;99.90;;;;;;5054186;28;19909;-78
2022/02/20 09:36:36;;;;;;;;;;;16.00;99.90;;;;;;5054144;28;19955;-79
2022/02/20 09:39:03;;;;;;;;;;;16.20;99.90;;;;;;5053859;28;19909;-78
2022/02/20 09:41:31;;;;;;;;;;;15.90;99.90;;;;;;5054005;28;19999;-78
2022/02/20 09:43:57;;;;;;;;;;;15.90;99.90;;;;;;5053746;28;19909;-78
2022/02/20 09:46:23;;;;;;;;;;;16.90;99.90;;;;;;5035919;28;19916;-78
2022/02/20 09:48:51;;;;;;;;;;;16.50;99.90;;;;;;5053721;28;19916;-78
2022/02/20 09:51:16;;;;;;;;;;;16.70;99.90;;;;;;5053691;28;20301;-77
2022/02/20 09:53:42;;;;;;;;;;;16.40;99.90;;;;;;5053585;28;19916;-78
2022/02/20 09:56:07;;;;;;;;;;;16.60;99.90;;;;;;5053713;28;19970;-78
2022/02/20 09:58:33;;;;;;;;;;;17.20;99.90;;;;;;5054103;28;20083;-77
2022/02/20 10:01:06;;;;;;;;;;;17.70;99.90;;;;;;5053551;28;20331;-77
2022/02/20 10:03:33;;;;;;;;;;;18.30;99.90;;;;;;5053725;28;20314;-78
2022/02/20 10:06:00;;;;;;;;;;;18.30;99.90;;;;;;5053553;28;19909;-79
2022/02/20 10:08:27;;;;;;;;;;;18.20;99.90;;;;;;5053436;28;19988;-77
2022/02/20 10:10:52;;;;;;;;;;;17.60;99.90;;;;;;5053856;28;20289;-77
2022/02/20 10:13:25;;;;;;;;;;;16.80;99.90;;;;;;5035496;28;19909;-78
2022/02/20 10:15:50;;;;;;;;;;;16.80;99.90;;;;;;5053489;28;20003;-78
2022/02/20 10:18:18;;;;;;;;;;;17.30;99.90;;;;;;5033531;28;19956;-78
2022/02/20 10:20:44;;;;;;;;;;;18.40;99.90;;;;;;5032201;28;19909;-77
2022/02/20 10:23:14;;;;;;;;;;;18.70;99.90;;;;;;5009702;28;20382;-78
2022/02/20 10:25:41;;;;;;;;;;;18.00;99.90;;;;;;5035579;28;20377;-78
2022/02/20 10:28:07;;;;;;;;;;;17.40;99.90;;;;;;5046758;28;20407;-78
2022/02/20 10:30:33;;;;;;;;;;;18.10;99.90;;;;;;5046596;28;19913;-78
2022/02/20 10:33:10;;;;;;;;;;;18.90;99.90;;;;;;5039801;28;19909;-78
2022/02/20 10:35:43;;;;;;;;;;;18.60;99.90;;;;;;5034918;28;20388;-78
2022/02/20 10:38:13;;;;;;;;;;;18.50;99.90;;;;;;5027664;28;19955;-78
2022/02/20 10:40:39;;;;;;;;;;;18.60;99.90;;;;;;5039218;28;19908;-78
2022/02/20 10:43:06;;;;;;;;;;;17.90;99.90;;;;;;5052424;28;19915;-77
2022/02/20 10:45:36;;;;;;;;;;;17.10;99.90;;;;;;5052809;28;19909;-77
2022/02/20 10:48:13;;;;;;;;;;;16.70;99.90;;;;;;5052784;28;19909;-78
2022/02/20 10:50:39;;;;;;;;;;;16.90;99.90;;;;;;5052128;28;19963;-78
2022/02/20 10:53:06;;;;;;;;;;;16.90;99.90;;;;;;5037527;28;19952;-78
2022/02/20 10:55:35;;;;;;;;;;;16.50;99.90;;;;;;5049419;28;19958;-78
2022/02/20 10:58:07;;;;;;;;;;;16.70;99.90;;;;;;5052150;28;19980;-77
2022/02/20 11:00:32;;;;;;;;;;;16.90;99.90;;;;;;5036161;28;19933;-78
2022/02/20 11:03:04;;;;;;;;;;;17.50;99.90;;;;;;5044222;28;19908;-78
2022/02/20 11:05:30;;;;;;;;;;;17.60;99.90;;;;;;5056888;28;19958;-78
2022/02/20 11:07:57;;;;;;;;;;;17.30;99.90;;;;;;5056675;28;19971;-78
2022/02/20 11:10:22;;;;;;;;;;;17.90;99.90;;;;;;5056573;28;19920;-77
2022/02/20 11:12:48;;;;;;;;;;;17.00;99.90;;;;;;5057110;28;19909;-77
2022/02/20 11:15:17;;;;;;;;;;;16.90;99.90;;;;;;5038642;28;19936;-77
2022/02/20 11:17:43;;;;;;;;;;;16.30;99.90;;;;;;5071672;28;19927;-78
2022/02/20 11:20:09;;;;;;;;;;;16.10;99.90;;;;;;5076478;28;19909;-78
2022/02/20 11:22:36;;;;;;;;;;;16.40;99.90;;;;;;5076616;28;19916;-77
2022/02/20 11:25:02;;;;;;;;;;;16.90;99.90;;;;;;5076401;28;19908;-77
2022/02/20 11:27:28;;;;;;;;;;;17.60;99.90;;;;;;5076338;28;20395;-77
2022/02/20 11:29:53;;;;;;;;;;;17.70;99.90;;;;;;5076201;28;19917;-78
2022/02/20 11:32:20;;;;;;;;;;;16.60;99.90;;;;;;5076289;28;19909;-77
2022/02/20 11:34:46;;;;;;;;;;;16.50;99.90;;;;;;5076216;28;19909;-77
2022/02/20 11:37:12;;;;;;;;;;;16.50;99.90;;;;;;5076158;28;19920;-77
2022/02/20 11:39:58;;;;;;;;;;;16.60;99.90;;;;;;5076207;28;19908;-78
2022/02/20 11:42:24;;;;;;;;;;;16.40;99.90;;;;;;5076303;28;19922;-77
2022/02/20 11:44:52;;;;;;;;;;;15.80;99.90;;;;;;5076158;28;19908;-78
2022/02/20 11:47:33;;;;;;;;;;;15.30;99.90;;;;;;5057955;28;19999;-77
2022/02/20 11:50:16;;;;;;;;;;;15.10;99.90;;;;;;5075772;28;20323;-77
2022/02/20 11:52:45;;;;;;;;;;;14.80;99.90;;;;;;5075791;28;19908;-77
2022/02/20 11:55:23;;;;;;;;;;;14.70;99.90;;;;;;5075950;28;20287;-77
2022/02/20 11:57:50;;;;;;;;;;;14.60;99.90;;;;;;5075780;28;19909;-77
2022/02/20 12:00:23;;;;;;;;;;;14.50;99.90;;;;;;5075676;28;20388;-77
2022/02/20 12:03:06;;;;;;;;;;;14.60;99.90;;;;;;5075660;28;19915;-78
2022/02/20 12:05:35;;;;;;;;;;;14.60;99.90;;;;;;5075735;28;19958;-77
2022/02/20 12:08:05;;;;;;;;;;;14.40;99.90;;;;;;5075617;28;20300;-77
2022/02/20 12:10:32;;;;;;;;;;;14.50;99.90;;;;;;5075421;28;20007;-78
2022/02/20 12:13:00;;;;;;;;;;;14.20;99.90;;;;;;5057442;28;19995;-77
2022/02/20 12:15:30;;;;;;;;;;;14.30;99.90;;;;;;5075580;28;19962;-78
2022/02/20 12:18:11;;;;;;;;;;;14.20;99.90;;;;;;5075026;28;19925;-77
2022/02/20 12:20:51;;;;;;;;;;;14.10;99.90;;;;;;5075365;28;20288;-77
2022/02/20 12:23:27;;;;;;;;;;;14.10;99.90;;;;;;5075246;28;19909;-77
2022/02/20 12:25:53;;;;;;;;;;;13.90;99.90;;;;;;5075207;28;19914;-77
2022/02/20 12:28:31;;;;;;;;;;;14.00;99.90;;;;;;5075143;28;20307;-78
2022/02/20 12:31:07;;;;;;;;;;;14.40;99.90;;;;;;5075440;28;20363;-78
2022/02/20 12:33:34;;;;;;;;;;;14.50;99.90;;;;;;5075161;28;20288;-78
2022/02/20 12:36:00;;;;;;;;;;;14.60;99.90;;;;;;5075080;28;19909;-78
2022/02/20 12:38:25;;;;;;;;;;;14.60;99.90;;;;;;5057032;28;19909;-78
2022/02/20 12:40:52;;;;;;;;;;;14.60;99.90;;;;;;5075227;28;19908;-77
2022/02/20 12:43:17;;;;;;;;;;;14.70;99.90;;;;;;5074873;28;19915;-77
2022/02/20 12:45:45;;;;;;;;;;;14.80;99.90;;;;;;5074840;28;19908;-77
2022/02/20 12:48:12;;;;;;;;;;;14.90;99.90;;;;;;5074809;28;19912;-78
2022/02/20 12:50:42;;;;;;;;;;;15.60;99.90;;;;;;5074623;28;20373;-77
2022/02/20 12:53:08;;;;;;;;;;;15.90;99.90;;;;;;5074676;28;19958;-77
2022/02/20 12:55:35;;;;;;;;;;;17.20;99.90;;;;;;5074612;28;19917;-78
2022/02/20 12:58:05;;;;;;;;;;;18.30;99.90;;;;;;5074580;28;19909;-77
2022/02/20 13:00:31;;;;;;;;;;;17.20;99.90;;;;;;5074698;28;19908;-78
2022/02/20 13:02:58;;;;;;;;;;;16.40;99.90;;;;;;5056514;28;19908;-77
2022/02/20 13:05:29;;;;;;;;;;;16.10;99.90;;;;;;5074474;28;20407;-77
2022/02/20 13:07:59;;;;;;;;;;;15.80;99.90;;;;;;5074442;28;19909;-78
2022/02/20 13:10:26;;;;;;;;;;;15.30;99.90;;;;;;5074321;28;19920;-78
2022/02/20 13:12:56;;;;;;;;;;;15.10;99.90;;;;;;5074595;28;20391;-77
2022/02/20 13:15:23;;;;;;;;;;;14.80;99.90;;;;;;5074407;28;19909;-78
2022/02/20 13:17:51;;;;;;;;;;;14.90;99.90;;;;;;5074049;28;19967;-77
2022/02/20 13:20:36;;;;;;;;;;;14.80;99.90;;;;;;5074214;28;20269;-77
2022/02/20 13:23:13;;;;;;;;;;;14.90;99.90;;;;;;5074135;28;19908;-77
2022/02/20 13:25:42;;;;;;;;;;;15.00;99.90;;;;;;5073190;28;20300;-78
2022/02/20 13:28:09;;;;;;;;;;;14.90;99.90;;;;;;5074010;28;19936;-77
2022/02/20 13:30:35;;;;;;;;;;;14.80;99.90;;;;;;5074167;28;19916;-78
2022/02/20 13:33:20;;;;;;;;;;;14.50;99.90;;;;;;5074316;28;19958;-78
2022/02/20 13:35:46;;;;;;;;;;;14.60;99.90;;;;;;5074160;28;19935;-78
2022/02/20 13:38:14;;;;;;;;;;;14.60;99.90;;;;;;5073912;28;19912;-77
2022/02/20 13:40:43;;;;;;;;;;;14.60;99.90;;;;;;5073847;28;19943;-78
2022/02/20 13:43:13;;;;;;;;;;;14.40;99.90;;;;;;5073815;28;19908;-78
2022/02/20 13:45:48;;;;;;;;;;;14.30;99.90;;;;;;5055881;28;19999;-77
2022/02/20 13:48:23;;;;;;;;;;;14.30;99.90;;;;;;5073818;28;20300;-77
2022/02/20 13:50:49;;;;;;;;;;;14.30;99.90;;;;;;5073965;28;19912;-77
2022/02/20 13:53:15;;;;;;;;;;;14.30;99.90;;;;;;5073626;28;20421;-78
2022/02/20 13:55:51;;;;;;;;;;;14.20;99.90;;;;;;5055729;28;19908;-77
2022/02/20 13:58:19;;;;;;;;;;;14.20;99.90;;;;;;5073759;28;19908;-77
2022/02/20 14:00:54;;;;;;;;;;;14.20;99.90;;;;;;5073589;28;19916;-78
2022/02/20 14:03:20;;;;;;;;;;;14.20;99.90;;;;;;5073488;28;19919;-77
2022/02/20 14:05:46;;;;;;;;;;;14.20;99.90;;;;;;5073876;28;19908;-78
2022/02/20 14:08:16;;;;;;;;;;;14.00;99.90;;;;;;5073701;28;19913;-77
2022/02/20 14:10:52;;;;;;;;;;;13.80;99.90;;;;;;5073770;28;20265;-78
2022/02/20 14:13:17;;;;;;;;;;;13.80;99.90;;;;;;5073981;28;19908;-77
2022/02/20 14:15:43;;;;;;;;;;;13.90;99.90;;;;;;5073536;28;19908;-77
2022/02/20 14:18:09;;;;;;;;;;;13.80;99.90;;;;;;5073201;28;19972;-77